sensor_id;sensor_type;location;lat;lon;timestamp;P1;durP1;ratioP1;P2;durP2;ratioP2
13388;SDS011;6764;53.250;10.410;2023-04-15T00:01:58;9.90;;;8.90;;
13388;SDS011;6764;53.250;10.410;2023-04-15T00:04:24;9.87;;;8.87;;
13388;SDS011;6764;53.250;10.410;2023-04-15T00:06:50;10.03;;;8.90;;
13388;SDS011;6764;53.250;10.410;2023-04-15T00:09:20;9.83;;;8.93;;
13388;SDS011;6764;53.250;10.410;2023-04-15T00:11:45;10.33;;;9.30;;
13388;SDS011;6764;53.250;10.410;2023-04-15T00:14:11;9.23;;;8.27;;
13388;SDS011;6764;53.250;10.410;2023-04-15T00:16:38;8.57;;;7.67;;
13388;SDS011;6764;53.250;10.410;2023-04-15T00:19:03;7.63;;;6.93;;
13388;SDS011;6764;53.250;10.410;2023-04-15T00:21:29;7.10;;;6.37;;
13388;SDS011;6764;53.250;10.410;2023-04-15T00:23:55;7.83;;;6.90;;
13388;SDS011;6764;53.250;10.410;2023-04-15T00:26:20;7.13;;;6.43;;
13388;SDS011;6764;53.250;10.410;2023-04-15T00:28:46;7.17;;;5.80;;
13388;SDS011;6764;53.250;10.410;2023-04-15T00:31:12;6.70;;;5.70;;
13388;SDS011;6764;53.250;10.410;2023-04-15T00:33:38;6.67;;;5.97;;
13388;SDS011;6764;53.250;10.410;2023-04-15T00:36:05;6.67;;;5.47;;
13388;SDS011;6764;53.250;10.410;2023-04-15T00:38:31;6.57;;;5.10;;
13388;SDS011;6764;53.250;10.410;2023-04-15T00:40:57;7.17;;;5.43;;
13388;SDS011;6764;53.250;10.410;2023-04-15T00:43:23;6.37;;;5.77;;
13388;SDS011;6764;53.250;10.410;2023-04-15T00:45:50;5.57;;;5.07;;
13388;SDS011;6764;53.250;10.410;2023-04-15T00:48:17;6.20;;;5.60;;
13388;SDS011;6764;53.250;10.410;2023-04-15T00:50:44;6.07;;;5.47;;
13388;SDS011;6764;53.250;10.410;2023-04-15T00:53:09;6.63;;;6.00;;
13388;SDS011;6764;53.250;10.410;2023-04-15T00:55:36;8.30;;;7.00;;
13388;SDS011;6764;53.250;10.410;2023-04-15T00:58:02;7.07;;;6.37;;
13388;SDS011;6764;53.250;10.410;2023-04-15T01:00:27;6.10;;;5.60;;
13388;SDS011;6764;53.250;10.410;2023-04-15T01:02:54;6.03;;;5.53;;
13388;SDS011;6764;53.250;10.410;2023-04-15T01:05:20;6.53;;;5.83;;
13388;SDS011;6764;53.250;10.410;2023-04-15T01:07:45;6.43;;;5.83;;
13388;SDS011;6764;53.250;10.410;2023-04-15T01:10:12;6.97;;;6.23;;
13388;SDS011;6764;53.250;10.410;2023-04-15T01:12:38;6.00;;;5.50;;
13388;SDS011;6764;53.250;10.410;2023-04-15T01:15:04;6.90;;;6.20;;
13388;SDS011;6764;53.250;10.410;2023-04-15T01:17:30;6.57;;;5.97;;
13388;SDS011;6764;53.250;10.410;2023-04-15T01:19:56;7.17;;;6.47;;
13388;SDS011;6764;53.250;10.410;2023-04-15T01:22:23;6.30;;;5.70;;
13388;SDS011;6764;53.250;10.410;2023-04-15T01:24:54;6.07;;;5.53;;
13388;SDS011;6764;53.250;10.410;2023-04-15T01:27:30;5.93;;;5.40;;
13388;SDS011;6764;53.250;10.410;2023-04-15T01:29:56;7.07;;;6.47;;
13388;SDS011;6764;53.250;10.410;2023-04-15T01:32:22;6.73;;;6.13;;
13388;SDS011;6764;53.250;10.410;2023-04-15T01:34:48;7.17;;;6.47;;
13388;SDS011;6764;53.250;10.410;2023-04-15T01:37:13;6.70;;;5.63;;
13388;SDS011;6764;53.250;10.410;2023-04-15T01:39:39;6.47;;;5.90;;
13388;SDS011;6764;53.250;10.410;2023-04-15T01:42:05;6.57;;;5.97;;
13388;SDS011;6764;53.250;10.410;2023-04-15T01:44:31;6.90;;;6.30;;
13388;SDS011;6764;53.250;10.410;2023-04-15T01:46:56;5.97;;;5.47;;
13388;SDS011;6764;53.250;10.410;2023-04-15T01:49:22;6.23;;;5.63;;
13388;SDS011;6764;53.250;10.410;2023-04-15T01:51:48;6.27;;;5.73;;
13388;SDS011;6764;53.250;10.410;2023-04-15T01:54:13;7.50;;;6.30;;
13388;SDS011;6764;53.250;10.410;2023-04-15T01:56:39;6.67;;;6.07;;
13388;SDS011;6764;53.250;10.410;2023-04-15T01:59:05;6.87;;;6.17;;
13388;SDS011;6764;53.250;10.410;2023-04-15T02:01:30;6.43;;;5.83;;
13388;SDS011;6764;53.250;10.410;2023-04-15T02:03:56;6.60;;;6.00;;
13388;SDS011;6764;53.250;10.410;2023-04-15T02:06:22;7.00;;;6.30;;
13388;SDS011;6764;53.250;10.410;2023-04-15T02:08:48;5.93;;;5.43;;
13388;SDS011;6764;53.250;10.410;2023-04-15T02:11:14;6.50;;;5.90;;
13388;SDS011;6764;53.250;10.410;2023-04-15T02:13:39;7.93;;;6.30;;
13388;SDS011;6764;53.250;10.410;2023-04-15T02:16:13;7.00;;;6.30;;
13388;SDS011;6764;53.250;10.410;2023-04-15T02:18:43;6.53;;;5.93;;
13388;SDS011;6764;53.250;10.410;2023-04-15T02:21:10;6.63;;;6.03;;
13388;SDS011;6764;53.250;10.410;2023-04-15T02:23:36;6.53;;;5.90;;
13388;SDS011;6764;53.250;10.410;2023-04-15T02:26:02;6.43;;;5.83;;
13388;SDS011;6764;53.250;10.410;2023-04-15T02:28:27;8.47;;;6.20;;
13388;SDS011;6764;53.250;10.410;2023-04-15T02:30:53;6.80;;;6.20;;
13388;SDS011;6764;53.250;10.410;2023-04-15T02:33:21;8.03;;;6.67;;
13388;SDS011;6764;53.250;10.410;2023-04-15T02:35:47;8.53;;;7.50;;
13388;SDS011;6764;53.250;10.410;2023-04-15T02:38:13;7.43;;;6.73;;
13388;SDS011;6764;53.250;10.410;2023-04-15T02:40:40;7.23;;;6.33;;
13388;SDS011;6764;53.250;10.410;2023-04-15T02:43:06;7.57;;;6.87;;
13388;SDS011;6764;53.250;10.410;2023-04-15T02:45:32;8.03;;;7.10;;
13388;SDS011;6764;53.250;10.410;2023-04-15T02:47:57;7.87;;;7.00;;
13388;SDS011;6764;53.250;10.410;2023-04-15T02:50:23;9.00;;;6.63;;
13388;SDS011;6764;53.250;10.410;2023-04-15T02:52:49;7.70;;;7.00;;
13388;SDS011;6764;53.250;10.410;2023-04-15T02:55:16;9.87;;;8.07;;
13388;SDS011;6764;53.250;10.410;2023-04-15T02:57:42;8.17;;;7.03;;
13388;SDS011;6764;53.250;10.410;2023-04-15T03:00:08;8.07;;;6.43;;
13388;SDS011;6764;53.250;10.410;2023-04-15T03:02:39;8.10;;;7.30;;
13388;SDS011;6764;53.250;10.410;2023-04-15T03:05:06;8.00;;;7.30;;
13388;SDS011;6764;53.250;10.410;2023-04-15T03:07:35;8.20;;;7.40;;
13388;SDS011;6764;53.250;10.410;2023-04-15T03:10:01;8.43;;;7.10;;
13388;SDS011;6764;53.250;10.410;2023-04-15T03:12:26;9.53;;;7.97;;
13388;SDS011;6764;53.250;10.410;2023-04-15T03:14:53;9.03;;;8.03;;
13388;SDS011;6764;53.250;10.410;2023-04-15T03:17:18;9.57;;;8.57;;
13388;SDS011;6764;53.250;10.410;2023-04-15T03:19:44;9.00;;;8.10;;
13388;SDS011;6764;53.250;10.410;2023-04-15T03:22:10;9.33;;;8.37;;
13388;SDS011;6764;53.250;10.410;2023-04-15T03:24:35;9.87;;;8.87;;
13388;SDS011;6764;53.250;10.410;2023-04-15T03:27:01;11.30;;;9.20;;
13388;SDS011;6764;53.250;10.410;2023-04-15T03:29:27;13.00;;;9.23;;
13388;SDS011;6764;53.250;10.410;2023-04-15T03:31:52;9.63;;;8.63;;
13388;SDS011;6764;53.250;10.410;2023-04-15T03:34:18;9.83;;;8.83;;
13388;SDS011;6764;53.250;10.410;2023-04-15T03:36:44;10.00;;;8.97;;
13388;SDS011;6764;53.250;10.410;2023-04-15T03:39:10;11.50;;;9.90;;
13388;SDS011;6764;53.250;10.410;2023-04-15T03:41:36;10.70;;;8.73;;
13388;SDS011;6764;53.250;10.410;2023-04-15T03:44:01;11.13;;;9.47;;
13388;SDS011;6764;53.250;10.410;2023-04-15T03:46:27;12.03;;;10.47;;
13388;SDS011;6764;53.250;10.410;2023-04-15T03:48:53;12.37;;;10.27;;
13388;SDS011;6764;53.250;10.410;2023-04-15T03:51:18;13.63;;;10.97;;
13388;SDS011;6764;53.250;10.410;2023-04-15T03:53:44;11.80;;;10.43;;
13388;SDS011;6764;53.250;10.410;2023-04-15T03:56:10;13.10;;;10.80;;
13388;SDS011;6764;53.250;10.410;2023-04-15T03:58:35;14.20;;;11.33;;
13388;SDS011;6764;53.250;10.410;2023-04-15T04:01:01;13.87;;;11.20;;
13388;SDS011;6764;53.250;10.410;2023-04-15T04:03:27;13.57;;;11.43;;
13388;SDS011;6764;53.250;10.410;2023-04-15T04:05:52;13.33;;;11.70;;
13388;SDS011;6764;53.250;10.410;2023-04-15T04:08:18;14.10;;;11.57;;
13388;SDS011;6764;53.250;10.410;2023-04-15T04:10:45;17.30;;;13.07;;
13388;SDS011;6764;53.250;10.410;2023-04-15T04:13:11;13.80;;;11.87;;
13388;SDS011;6764;53.250;10.410;2023-04-15T04:15:36;18.83;;;13.03;;
13388;SDS011;6764;53.250;10.410;2023-04-15T04:18:02;16.53;;;13.03;;
13388;SDS011;6764;53.250;10.410;2023-04-15T04:20:28;15.83;;;12.73;;
13388;SDS011;6764;53.250;10.410;2023-04-15T04:22:55;15.43;;;12.50;;
13388;SDS011;6764;53.250;10.410;2023-04-15T04:25:21;16.90;;;13.27;;
13388;SDS011;6764;53.250;10.410;2023-04-15T04:27:47;16.70;;;12.73;;
13388;SDS011;6764;53.250;10.410;2023-04-15T04:30:13;17.07;;;13.50;;
13388;SDS011;6764;53.250;10.410;2023-04-15T04:32:38;19.20;;;14.67;;
13388;SDS011;6764;53.250;10.410;2023-04-15T04:35:04;21.23;;;14.43;;
13388;SDS011;6764;53.250;10.410;2023-04-15T04:37:29;17.77;;;13.57;;
13388;SDS011;6764;53.250;10.410;2023-04-15T04:39:55;16.73;;;12.60;;
13388;SDS011;6764;53.250;10.410;2023-04-15T04:42:21;16.53;;;12.90;;
13388;SDS011;6764;53.250;10.410;2023-04-15T04:44:47;18.37;;;13.77;;
13388;SDS011;6764;53.250;10.410;2023-04-15T04:47:12;20.37;;;14.60;;
13388;SDS011;6764;53.250;10.410;2023-04-15T04:49:38;19.83;;;14.10;;
13388;SDS011;6764;53.250;10.410;2023-04-15T04:52:03;20.13;;;14.10;;
13388;SDS011;6764;53.250;10.410;2023-04-15T04:54:29;17.10;;;13.07;;
13388;SDS011;6764;53.250;10.410;2023-04-15T04:56:55;19.00;;;13.30;;
13388;SDS011;6764;53.250;10.410;2023-04-15T04:59:21;17.17;;;13.83;;
13388;SDS011;6764;53.250;10.410;2023-04-15T05:01:47;18.77;;;13.77;;
13388;SDS011;6764;53.250;10.410;2023-04-15T05:04:13;19.47;;;14.10;;
13388;SDS011;6764;53.250;10.410;2023-04-15T05:06:39;17.37;;;12.87;;
13388;SDS011;6764;53.250;10.410;2023-04-15T05:09:04;17.20;;;13.30;;
13388;SDS011;6764;53.250;10.410;2023-04-15T05:11:30;17.47;;;13.20;;
13388;SDS011;6764;53.250;10.410;2023-04-15T05:13:56;19.97;;;15.13;;
13388;SDS011;6764;53.250;10.410;2023-04-15T05:16:23;21.43;;;14.50;;
13388;SDS011;6764;53.250;10.410;2023-04-15T05:18:49;21.93;;;15.67;;
13388;SDS011;6764;53.250;10.410;2023-04-15T05:21:15;18.53;;;15.20;;
13388;SDS011;6764;53.250;10.410;2023-04-15T05:23:41;20.07;;;15.13;;
13388;SDS011;6764;53.250;10.410;2023-04-15T05:26:07;21.07;;;16.13;;
13388;SDS011;6764;53.250;10.410;2023-04-15T05:28:33;19.33;;;15.27;;
13388;SDS011;6764;53.250;10.410;2023-04-15T05:30:58;20.87;;;14.87;;
13388;SDS011;6764;53.250;10.410;2023-04-15T05:33:24;21.13;;;14.93;;
13388;SDS011;6764;53.250;10.410;2023-04-15T05:35:50;21.10;;;14.83;;
13388;SDS011;6764;53.250;10.410;2023-04-15T05:38:15;21.73;;;14.53;;
13388;SDS011;6764;53.250;10.410;2023-04-15T05:40:41;18.77;;;14.17;;
13388;SDS011;6764;53.250;10.410;2023-04-15T05:43:07;19.73;;;14.57;;
13388;SDS011;6764;53.250;10.410;2023-04-15T05:45:32;21.27;;;15.07;;
13388;SDS011;6764;53.250;10.410;2023-04-15T05:47:58;19.07;;;14.20;;
13388;SDS011;6764;53.250;10.410;2023-04-15T05:50:23;20.47;;;14.87;;
13388;SDS011;6764;53.250;10.410;2023-04-15T05:52:49;20.10;;;15.13;;
13388;SDS011;6764;53.250;10.410;2023-04-15T05:55:15;19.13;;;14.47;;
13388;SDS011;6764;53.250;10.410;2023-04-15T05:57:41;23.10;;;16.37;;
13388;SDS011;6764;53.250;10.410;2023-04-15T06:00:06;23.47;;;16.33;;
13388;SDS011;6764;53.250;10.410;2023-04-15T06:02:32;23.30;;;16.47;;
13388;SDS011;6764;53.250;10.410;2023-04-15T06:04:58;22.90;;;16.10;;
13388;SDS011;6764;53.250;10.410;2023-04-15T06:07:24;20.03;;;15.30;;
13388;SDS011;6764;53.250;10.410;2023-04-15T06:09:50;24.63;;;17.43;;
13388;SDS011;6764;53.250;10.410;2023-04-15T06:12:16;24.80;;;16.53;;
13388;SDS011;6764;53.250;10.410;2023-04-15T06:14:41;28.07;;;18.17;;
13388;SDS011;6764;53.250;10.410;2023-04-15T06:17:07;25.20;;;17.47;;
13388;SDS011;6764;53.250;10.410;2023-04-15T06:19:33;26.97;;;18.43;;
13388;SDS011;6764;53.250;10.410;2023-04-15T06:22:01;27.77;;;19.67;;
13388;SDS011;6764;53.250;10.410;2023-04-15T06:24:27;29.23;;;19.67;;
13388;SDS011;6764;53.250;10.410;2023-04-15T06:26:52;28.90;;;19.93;;
13388;SDS011;6764;53.250;10.410;2023-04-15T06:29:18;28.73;;;19.03;;
13388;SDS011;6764;53.250;10.410;2023-04-15T06:31:45;29.07;;;19.10;;
13388;SDS011;6764;53.250;10.410;2023-04-15T06:34:11;30.73;;;21.43;;
13388;SDS011;6764;53.250;10.410;2023-04-15T06:36:37;31.10;;;21.90;;
13388;SDS011;6764;53.250;10.410;2023-04-15T06:39:03;31.90;;;24.00;;
13388;SDS011;6764;53.250;10.410;2023-04-15T06:41:28;34.53;;;24.57;;
13388;SDS011;6764;53.250;10.410;2023-04-15T06:43:54;29.80;;;22.90;;
13388;SDS011;6764;53.250;10.410;2023-04-15T06:46:19;30.53;;;23.87;;
13388;SDS011;6764;53.250;10.410;2023-04-15T06:48:46;29.53;;;22.73;;
13388;SDS011;6764;53.250;10.410;2023-04-15T06:51:11;30.13;;;22.43;;
13388;SDS011;6764;53.250;10.410;2023-04-15T06:53:37;34.17;;;24.97;;
13388;SDS011;6764;53.250;10.410;2023-04-15T06:56:06;30.37;;;24.30;;
13388;SDS011;6764;53.250;10.410;2023-04-15T06:58:33;35.47;;;25.80;;
13388;SDS011;6764;53.250;10.410;2023-04-15T07:00:58;36.40;;;26.10;;
13388;SDS011;6764;53.250;10.410;2023-04-15T07:03:24;32.57;;;25.73;;
13388;SDS011;6764;53.250;10.410;2023-04-15T07:05:51;34.37;;;26.57;;
13388;SDS011;6764;53.250;10.410;2023-04-15T07:08:16;35.43;;;26.37;;
13388;SDS011;6764;53.250;10.410;2023-04-15T07:10:42;34.87;;;26.43;;
13388;SDS011;6764;53.250;10.410;2023-04-15T07:13:08;35.20;;;25.00;;
13388;SDS011;6764;53.250;10.410;2023-04-15T07:15:34;37.13;;;26.97;;
13388;SDS011;6764;53.250;10.410;2023-04-15T07:17:59;37.97;;;26.43;;
13388;SDS011;6764;53.250;10.410;2023-04-15T07:20:25;38.07;;;28.33;;
13388;SDS011;6764;53.250;10.410;2023-04-15T07:22:51;36.20;;;27.30;;
13388;SDS011;6764;53.250;10.410;2023-04-15T07:25:17;40.20;;;27.20;;
13388;SDS011;6764;53.250;10.410;2023-04-15T07:27:43;41.27;;;27.90;;
13388;SDS011;6764;53.250;10.410;2023-04-15T07:30:09;38.30;;;27.60;;
13388;SDS011;6764;53.250;10.410;2023-04-15T07:32:36;40.00;;;26.40;;
13388;SDS011;6764;53.250;10.410;2023-04-15T07:35:02;38.20;;;26.90;;
13388;SDS011;6764;53.250;10.410;2023-04-15T07:37:28;43.77;;;28.37;;
13388;SDS011;6764;53.250;10.410;2023-04-15T07:39:54;39.77;;;28.70;;
13388;SDS011;6764;53.250;10.410;2023-04-15T07:42:20;41.17;;;28.73;;
13388;SDS011;6764;53.250;10.410;2023-04-15T07:44:46;39.77;;;28.57;;
13388;SDS011;6764;53.250;10.410;2023-04-15T07:47:11;40.73;;;29.13;;
13388;SDS011;6764;53.250;10.410;2023-04-15T07:49:37;43.53;;;29.73;;
13388;SDS011;6764;53.250;10.410;2023-04-15T07:52:03;40.73;;;28.53;;
13388;SDS011;6764;53.250;10.410;2023-04-15T07:54:28;43.57;;;28.50;;
13388;SDS011;6764;53.250;10.410;2023-04-15T07:56:54;39.73;;;28.63;;
13388;SDS011;6764;53.250;10.410;2023-04-15T07:59:20;40.27;;;27.77;;
13388;SDS011;6764;53.250;10.410;2023-04-15T08:01:46;40.97;;;28.70;;
13388;SDS011;6764;53.250;10.410;2023-04-15T08:04:12;41.37;;;29.30;;
13388;SDS011;6764;53.250;10.410;2023-04-15T08:06:38;41.80;;;30.07;;
13388;SDS011;6764;53.250;10.410;2023-04-15T08:09:04;42.30;;;27.93;;
13388;SDS011;6764;53.250;10.410;2023-04-15T08:11:31;42.40;;;29.27;;
13388;SDS011;6764;53.250;10.410;2023-04-15T08:13:56;39.37;;;28.00;;
13388;SDS011;6764;53.250;10.410;2023-04-15T08:16:23;42.03;;;28.67;;
13388;SDS011;6764;53.250;10.410;2023-04-15T08:18:50;47.43;;;30.27;;
13388;SDS011;6764;53.250;10.410;2023-04-15T08:21:18;43.43;;;29.10;;
13388;SDS011;6764;53.250;10.410;2023-04-15T08:23:45;41.53;;;28.37;;
13388;SDS011;6764;53.250;10.410;2023-04-15T08:26:12;42.03;;;27.93;;
13388;SDS011;6764;53.250;10.410;2023-04-15T08:28:39;44.60;;;30.07;;
13388;SDS011;6764;53.250;10.410;2023-04-15T08:31:05;43.47;;;30.33;;
13388;SDS011;6764;53.250;10.410;2023-04-15T08:33:31;41.73;;;29.40;;
13388;SDS011;6764;53.250;10.410;2023-04-15T08:35:57;41.83;;;28.73;;
13388;SDS011;6764;53.250;10.410;2023-04-15T08:38:22;39.00;;;28.40;;
13388;SDS011;6764;53.250;10.410;2023-04-15T08:40:48;40.40;;;28.23;;
13388;SDS011;6764;53.250;10.410;2023-04-15T08:43:17;38.47;;;28.40;;
13388;SDS011;6764;53.250;10.410;2023-04-15T08:45:52;41.67;;;28.83;;
13388;SDS011;6764;53.250;10.410;2023-04-15T08:48:19;39.00;;;27.40;;
13388;SDS011;6764;53.250;10.410;2023-04-15T08:50:45;42.03;;;28.47;;
13388;SDS011;6764;53.250;10.410;2023-04-15T08:53:13;42.17;;;29.20;;
13388;SDS011;6764;53.250;10.410;2023-04-15T08:55:45;46.03;;;27.83;;
13388;SDS011;6764;53.250;10.410;2023-04-15T08:58:15;41.27;;;28.70;;
13388;SDS011;6764;53.250;10.410;2023-04-15T09:00:42;37.20;;;27.63;;
13388;SDS011;6764;53.250;10.410;2023-04-15T09:03:08;41.20;;;27.93;;
13388;SDS011;6764;53.250;10.410;2023-04-15T09:05:37;39.37;;;28.77;;
13388;SDS011;6764;53.250;10.410;2023-04-15T09:08:03;37.63;;;27.53;;
13388;SDS011;6764;53.250;10.410;2023-04-15T09:10:30;41.23;;;29.00;;
13388;SDS011;6764;53.250;10.410;2023-04-15T09:12:57;36.87;;;27.53;;
13388;SDS011;6764;53.250;10.410;2023-04-15T09:15:26;41.53;;;28.33;;
13388;SDS011;6764;53.250;10.410;2023-04-15T09:17:53;41.23;;;27.50;;
13388;SDS011;6764;53.250;10.410;2023-04-15T09:20:19;41.90;;;28.03;;
13388;SDS011;6764;53.250;10.410;2023-04-15T09:22:46;39.43;;;28.60;;
13388;SDS011;6764;53.250;10.410;2023-04-15T09:27:51;42.70;;;28.37;;
13388;SDS011;6764;53.250;10.410;2023-04-15T09:30:18;39.50;;;27.53;;
13388;SDS011;6764;53.250;10.410;2023-04-15T09:32:50;39.10;;;28.07;;
13388;SDS011;6764;53.250;10.410;2023-04-15T09:35:20;40.00;;;27.43;;
13388;SDS011;6764;53.250;10.410;2023-04-15T09:37:48;40.70;;;28.73;;
13388;SDS011;6764;53.250;10.410;2023-04-15T09:40:20;37.53;;;26.93;;
13388;SDS011;6764;53.250;10.410;2023-04-15T09:42:58;39.27;;;26.90;;
13388;SDS011;6764;53.250;10.410;2023-04-15T09:45:23;35.70;;;26.63;;
13388;SDS011;6764;53.250;10.410;2023-04-15T09:47:49;39.57;;;27.20;;
13388;SDS011;6764;53.250;10.410;2023-04-15T09:50:16;38.87;;;26.93;;
13388;SDS011;6764;53.250;10.410;2023-04-15T09:52:43;38.87;;;29.00;;
13388;SDS011;6764;53.250;10.410;2023-04-15T09:55:09;38.97;;;27.33;;
13388;SDS011;6764;53.250;10.410;2023-04-15T09:57:35;40.17;;;27.60;;
13388;SDS011;6764;53.250;10.410;2023-04-15T10:00:06;36.80;;;26.53;;
13388;SDS011;6764;53.250;10.410;2023-04-15T10:02:35;40.57;;;29.13;;
13388;SDS011;6764;53.250;10.410;2023-04-15T10:05:01;36.60;;;26.87;;
13388;SDS011;6764;53.250;10.410;2023-04-15T10:07:28;35.97;;;25.80;;
13388;SDS011;6764;53.250;10.410;2023-04-15T10:09:54;35.10;;;25.40;;
13388;SDS011;6764;53.250;10.410;2023-04-15T10:12:20;32.90;;;25.13;;
13388;SDS011;6764;53.250;10.410;2023-04-15T10:14:52;33.43;;;24.07;;
13388;SDS011;6764;53.250;10.410;2023-04-15T10:17:22;29.20;;;22.27;;
13388;SDS011;6764;53.250;10.410;2023-04-15T10:19:52;34.37;;;24.00;;
13388;SDS011;6764;53.250;10.410;2023-04-15T10:22:19;29.20;;;21.73;;
13388;SDS011;6764;53.250;10.410;2023-04-15T10:24:45;28.77;;;22.07;;
13388;SDS011;6764;53.250;10.410;2023-04-15T10:27:12;26.17;;;21.30;;
13388;SDS011;6764;53.250;10.410;2023-04-15T10:29:38;27.20;;;21.43;;
13388;SDS011;6764;53.250;10.410;2023-04-15T10:32:04;33.20;;;23.77;;
13388;SDS011;6764;53.250;10.410;2023-04-15T10:34:30;30.23;;;22.77;;
13388;SDS011;6764;53.250;10.410;2023-04-15T10:36:59;29.80;;;22.43;;
13388;SDS011;6764;53.250;10.410;2023-04-15T10:42:05;29.27;;;21.70;;
13388;SDS011;6764;53.250;10.410;2023-04-15T10:44:57;28.63;;;21.27;;
13388;SDS011;6764;53.250;10.410;2023-04-15T10:47:24;28.10;;;22.07;;
13388;SDS011;6764;53.250;10.410;2023-04-15T10:49:50;28.77;;;21.30;;
13388;SDS011;6764;53.250;10.410;2023-04-15T10:52:24;27.33;;;20.67;;
13388;SDS011;6764;53.250;10.410;2023-04-15T10:58:00;24.67;;;19.83;;
13388;SDS011;6764;53.250;10.410;2023-04-15T11:00:30;22.20;;;17.88;;
13388;SDS011;6764;53.250;10.410;2023-04-15T11:02:57;22.27;;;18.05;;
13388;SDS011;6764;53.250;10.410;2023-04-15T11:08:06;25.60;;;18.30;;
13388;SDS011;6764;53.250;10.410;2023-04-15T11:12:59;23.70;;;17.35;;
13388;SDS011;6764;53.250;10.410;2023-04-15T11:15:31;21.20;;;18.42;;
13388;SDS011;6764;53.250;10.410;2023-04-15T11:20:39;22.08;;;19.70;;
13388;SDS011;6764;53.250;10.410;2023-04-15T11:23:10;20.88;;;17.75;;
13388;SDS011;6764;53.250;10.410;2023-04-15T11:25:36;22.40;;;18.92;;
13388;SDS011;6764;53.250;10.410;2023-04-15T11:28:01;20.42;;;17.60;;
13388;SDS011;6764;53.250;10.410;2023-04-15T11:30:28;21.20;;;18.33;;
13388;SDS011;6764;53.250;10.410;2023-04-15T11:33:00;21.42;;;17.70;;
13388;SDS011;6764;53.250;10.410;2023-04-15T11:35:27;19.48;;;17.30;;
13388;SDS011;6764;53.250;10.410;2023-04-15T11:37:54;20.88;;;18.45;;
13388;SDS011;6764;53.250;10.410;2023-04-15T11:40:23;18.80;;;16.77;;
13388;SDS011;6764;53.250;10.410;2023-04-15T11:43:04;20.88;;;18.60;;
13388;SDS011;6764;53.250;10.410;2023-04-15T11:45:38;21.15;;;18.08;;
13388;SDS011;6764;53.250;10.410;2023-04-15T11:48:22;22.08;;;18.08;;
13388;SDS011;6764;53.250;10.410;2023-04-15T11:50:53;19.95;;;17.48;;
13388;SDS011;6764;53.250;10.410;2023-04-15T11:53:50;20.75;;;17.98;;
13388;SDS011;6764;53.250;10.410;2023-04-15T11:56:17;21.77;;;17.30;;
13388;SDS011;6764;53.250;10.410;2023-04-15T11:58:47;23.65;;;18.10;;
13388;SDS011;6764;53.250;10.410;2023-04-15T12:01:16;22.05;;;17.92;;
13388;SDS011;6764;53.250;10.410;2023-04-15T12:03:45;21.13;;;17.55;;
13388;SDS011;6764;53.250;10.410;2023-04-15T12:08:50;20.60;;;17.58;;
13388;SDS011;6764;53.250;10.410;2023-04-15T12:11:29;19.33;;;17.27;;
13388;SDS011;6764;53.250;10.410;2023-04-15T12:14:03;20.67;;;17.98;;
13388;SDS011;6764;53.250;10.410;2023-04-15T12:16:30;19.63;;;17.50;;
13388;SDS011;6764;53.250;10.410;2023-04-15T12:19:03;20.55;;;17.73;;
13388;SDS011;6764;53.250;10.410;2023-04-15T12:21:35;19.57;;;17.33;;
13388;SDS011;6764;53.250;10.410;2023-04-15T12:24:03;21.23;;;17.37;;
13388;SDS011;6764;53.250;10.410;2023-04-15T12:26:33;20.43;;;17.90;;
13388;SDS011;6764;53.250;10.410;2023-04-15T12:29:07;21.87;;;18.17;;
13388;SDS011;6764;53.250;10.410;2023-04-15T12:31:35;23.00;;;16.93;;
13388;SDS011;6764;53.250;10.410;2023-04-15T12:34:10;19.47;;;16.73;;
13388;SDS011;6764;53.250;10.410;2023-04-15T12:36:35;22.35;;;16.35;;
13388;SDS011;6764;53.250;10.410;2023-04-15T12:39:02;17.65;;;15.80;;
13388;SDS011;6764;53.250;10.410;2023-04-15T12:41:28;21.10;;;17.10;;
13388;SDS011;6764;53.250;10.410;2023-04-15T12:43:54;19.98;;;16.23;;
13388;SDS011;6764;53.250;10.410;2023-04-15T12:46:20;17.65;;;15.82;;
13388;SDS011;6764;53.250;10.410;2023-04-15T12:48:46;16.70;;;14.93;;
13388;SDS011;6764;53.250;10.410;2023-04-15T12:51:12;17.33;;;15.23;;
13388;SDS011;6764;53.250;10.410;2023-04-15T12:53:38;17.02;;;15.10;;
13388;SDS011;6764;53.250;10.410;2023-04-15T12:56:04;16.85;;;15.13;;
13388;SDS011;6764;53.250;10.410;2023-04-15T12:58:30;19.15;;;16.17;;
13388;SDS011;6764;53.250;10.410;2023-04-15T13:00:56;18.73;;;15.95;;
13388;SDS011;6764;53.250;10.410;2023-04-15T13:03:21;15.93;;;13.93;;
13388;SDS011;6764;53.250;10.410;2023-04-15T13:05:47;16.35;;;14.27;;
13388;SDS011;6764;53.250;10.410;2023-04-15T13:08:13;15.23;;;13.52;;
13388;SDS011;6764;53.250;10.410;2023-04-15T13:10:38;16.15;;;13.05;;
13388;SDS011;6764;53.250;10.410;2023-04-15T13:13:06;17.43;;;12.63;;
13388;SDS011;6764;53.250;10.410;2023-04-15T13:15:32;16.50;;;12.95;;
13388;SDS011;6764;53.250;10.410;2023-04-15T13:17:58;15.07;;;12.60;;
13388;SDS011;6764;53.250;10.410;2023-04-15T13:20:24;17.52;;;15.48;;
13388;SDS011;6764;53.250;10.410;2023-04-15T13:22:51;15.95;;;11.95;;
13388;SDS011;6764;53.250;10.410;2023-04-15T13:25:17;13.95;;;12.50;;
13388;SDS011;6764;53.250;10.410;2023-04-15T13:27:43;14.07;;;12.00;;
13388;SDS011;6764;53.250;10.410;2023-04-15T13:30:09;13.30;;;11.85;;
13388;SDS011;6764;53.250;10.410;2023-04-15T13:32:34;16.95;;;13.55;;
13388;SDS011;6764;53.250;10.410;2023-04-15T13:35:00;13.93;;;12.50;;
13388;SDS011;6764;53.250;10.410;2023-04-15T13:37:26;13.77;;;12.37;;
13388;SDS011;6764;53.250;10.410;2023-04-15T13:39:52;16.30;;;12.80;;
13388;SDS011;6764;53.250;10.410;2023-04-15T13:42:19;15.07;;;12.63;;
13388;SDS011;6764;53.250;10.410;2023-04-15T13:44:45;15.13;;;12.83;;
13388;SDS011;6764;53.250;10.410;2023-04-15T13:47:11;15.67;;;12.90;;
13388;SDS011;6764;53.250;10.410;2023-04-15T13:49:38;18.58;;;13.98;;
13388;SDS011;6764;53.250;10.410;2023-04-15T13:52:04;15.30;;;13.70;;
13388;SDS011;6764;53.250;10.410;2023-04-15T13:54:30;14.37;;;12.87;;
13388;SDS011;6764;53.250;10.410;2023-04-15T13:56:55;15.27;;;13.70;;
13388;SDS011;6764;53.250;10.410;2023-04-15T13:59:22;14.00;;;12.50;;
13388;SDS011;6764;53.250;10.410;2023-04-15T14:01:47;13.67;;;12.37;;
13388;SDS011;6764;53.250;10.410;2023-04-15T14:04:13;14.97;;;13.27;;
13388;SDS011;6764;53.250;10.410;2023-04-15T14:06:39;13.43;;;11.87;;
13388;SDS011;6764;53.250;10.410;2023-04-15T14:09:05;14.47;;;11.80;;
13388;SDS011;6764;53.250;10.410;2023-04-15T14:11:30;13.80;;;11.30;;
13388;SDS011;6764;53.250;10.410;2023-04-15T14:13:56;15.00;;;11.57;;
13388;SDS011;6764;53.250;10.410;2023-04-15T14:16:22;13.03;;;11.60;;
13388;SDS011;6764;53.250;10.410;2023-04-15T14:18:47;14.03;;;11.43;;
13388;SDS011;6764;53.250;10.410;2023-04-15T14:21:13;12.67;;;11.33;;
13388;SDS011;6764;53.250;10.410;2023-04-15T14:23:39;12.93;;;11.63;;
13388;SDS011;6764;53.250;10.410;2023-04-15T14:26:05;11.47;;;10.37;;
13388;SDS011;6764;53.250;10.410;2023-04-15T14:28:30;12.13;;;10.93;;
13388;SDS011;6764;53.250;10.410;2023-04-15T14:30:57;12.33;;;11.07;;
13388;SDS011;6764;53.250;10.410;2023-04-15T14:33:23;11.68;;;10.57;;
13388;SDS011;6764;53.250;10.410;2023-04-15T14:35:48;14.27;;;12.17;;
13388;SDS011;6764;53.250;10.410;2023-04-15T14:38:15;13.20;;;11.80;;
13388;SDS011;6764;53.250;10.410;2023-04-15T14:40:41;13.67;;;10.80;;
13388;SDS011;6764;53.250;10.410;2023-04-15T14:45:40;12.10;;;10.80;;
13388;SDS011;6764;53.250;10.410;2023-04-15T14:48:06;10.95;;;9.70;;